sensor_id;sensor_type;location;lat;lon;timestamp;pressure;altitude;pressure_sealevel;temperature;humidity
23427;BME280;41148;45.420;10.952;2022-09-19T00:01:25;100292.88;;;14.90;58.58
23427;BME280;41148;45.420;10.952;2022-09-19T00:04:00;100287.22;;;14.96;58.88
23427;BME280;41148;45.420;10.952;2022-09-19T00:06:29;100284.66;;;14.93;58.05
23427;BME280;41148;45.420;10.952;2022-09-19T00:08:58;100284.53;;;14.96;58.07
23427;BME280;41148;45.420;10.952;2022-09-19T00:11:27;100284.84;;;14.90;59.25
23427;BME280;41148;45.420;10.952;2022-09-19T00:13:55;100278.22;;;14.80;59.67
23427;BME280;41148;45.420;10.952;2022-09-19T00:16:25;100267.97;;;14.71;60.07
23427;BME280;41148;45.420;10.952;2022-09-19T00:18:54;100280.13;;;14.78;59.90
23427;BME280;41148;45.420;10.952;2022-09-19T00:21:23;100277.44;;;14.78;59.99
23427;BME280;41148;45.420;10.952;2022-09-19T00:23:51;100271.25;;;14.76;59.94
23427;BME280;41148;45.420;10.952;2022-09-19T00:26:37;100271.81;;;14.82;59.88
23427;BME280;41148;45.420;10.952;2022-09-19T00:29:06;100268.09;;;14.85;59.90
23427;BME280;41148;45.420;10.952;2022-09-19T00:31:34;100269.69;;;14.89;59.53
23427;BME280;41148;45.420;10.952;2022-09-19T00:34:02;100274.78;;;14.94;59.45
23427;BME280;41148;45.420;10.952;2022-09-19T00:36:34;100260.31;;;14.80;60.80
23427;BME280;41148;45.420;10.952;2022-09-19T00:39:02;100260.06;;;14.85;60.52
23427;BME280;41148;45.420;10.952;2022-09-19T00:41:29;100243.91;;;14.86;61.16
23427;BME280;41148;45.420;10.952;2022-09-19T00:44:01;100240.97;;;14.91;61.44
23427;BME280;41148;45.420;10.952;2022-09-19T00:46:31;100237.88;;;14.99;61.16
23427;BME280;41148;45.420;10.952;2022-09-19T00:49:02;100236.28;;;15.12;59.82
23427;BME280;41148;45.420;10.952;2022-09-19T00:51:37;100241.91;;;15.23;59.74
23427;BME280;41148;45.420;10.952;2022-09-19T00:54:09;100227.53;;;15.08;58.80
23427;BME280;41148;45.420;10.952;2022-09-19T00:56:44;100225.94;;;15.04;58.48
23427;BME280;41148;45.420;10.952;2022-09-19T00:59:13;100226.56;;;15.09;58.07
23427;BME280;41148;45.420;10.952;2022-09-19T01:01:41;100225.00;;;15.05;58.27
23427;BME280;41148;45.420;10.952;2022-09-19T01:04:16;100216.56;;;14.96;58.27
23427;BME280;41148;45.420;10.952;2022-09-19T01:09:32;100227.16;;;14.99;58.90
23427;BME280;41148;45.420;10.952;2022-09-19T01:14:53;100217.56;;;14.77;60.17
23427;BME280;41148;45.420;10.952;2022-09-19T01:17:26;100212.66;;;14.85;60.20
23427;BME280;41148;45.420;10.952;2022-09-19T01:22:30;100212.41;;;14.90;60.70
23427;BME280;41148;45.420;10.952;2022-09-19T01:25:11;100210.59;;;14.91;60.33
23427;BME280;41148;45.420;10.952;2022-09-19T01:30:54;100219.41;;;14.59;61.07
23427;BME280;41148;45.420;10.952;2022-09-19T01:33:44;100225.84;;;14.55;61.56
23427;BME280;41148;45.420;10.952;2022-09-19T01:36:13;100216.06;;;14.54;60.83
23427;BME280;41148;45.420;10.952;2022-09-19T01:38:43;100216.47;;;14.47;60.62
23427;BME280;41148;45.420;10.952;2022-09-19T01:41:12;100207.78;;;14.42;60.31
23427;BME280;41148;45.420;10.952;2022-09-19T01:43:40;100206.56;;;14.49;59.62
23427;BME280;41148;45.420;10.952;2022-09-19T01:46:16;100205.53;;;14.51;60.16
23427;BME280;41148;45.420;10.952;2022-09-19T01:51:57;100206.94;;;14.58;60.45
23427;BME280;41148;45.420;10.952;2022-09-19T01:54:34;100205.69;;;14.48;61.65
23427;BME280;41148;45.420;10.952;2022-09-19T02:00:10;100210.78;;;14.53;61.17
23427;BME280;41148;45.420;10.952;2022-09-19T02:11:06;100213.00;;;14.45;59.42
23427;BME280;41148;45.420;10.952;2022-09-19T02:13:39;100220.84;;;14.30;60.08
23427;BME280;41148;45.420;10.952;2022-09-19T02:16:12;100221.06;;;14.26;59.97
23427;BME280;41148;45.420;10.952;2022-09-19T02:18:44;100225.03;;;14.19;60.06
23427;BME280;41148;45.420;10.952;2022-09-19T02:21:13;100221.44;;;14.01;61.13
23427;BME280;41148;45.420;10.952;2022-09-19T02:23:48;100208.19;;;13.98;61.55
23427;BME280;41148;45.420;10.952;2022-09-19T02:26:17;100209.78;;;14.02;61.11
23427;BME280;41148;45.420;10.952;2022-09-19T02:28:47;100217.66;;;14.05;61.39
23427;BME280;41148;45.420;10.952;2022-09-19T02:31:23;100208.22;;;14.15;61.59
23427;BME280;41148;45.420;10.952;2022-09-19T02:33:56;100206.97;;;14.22;61.25
23427;BME280;41148;45.420;10.952;2022-09-19T02:44:30;100215.88;;;13.87;63.84
23427;BME280;41148;45.420;10.952;2022-09-19T02:52:24;100207.09;;;13.47;64.46
23427;BME280;41148;45.420;10.952;2022-09-19T02:54:55;100205.97;;;13.53;64.92
23427;BME280;41148;45.420;10.952;2022-09-19T02:57:26;100201.25;;;13.58;64.24
23427;BME280;41148;45.420;10.952;2022-09-19T02:59:54;100201.41;;;13.55;64.61
23427;BME280;41148;45.420;10.952;2022-09-19T03:02:27;100206.41;;;13.43;66.20
23427;BME280;41148;45.420;10.952;2022-09-19T03:05:01;100195.81;;;13.40;65.61
23427;BME280;41148;45.420;10.952;2022-09-19T03:07:32;100200.25;;;13.41;65.37
23427;BME280;41148;45.420;10.952;2022-09-19T03:10:19;100198.81;;;13.34;65.49
23427;BME280;41148;45.420;10.952;2022-09-19T03:12:55;100200.53;;;13.35;65.34
23427;BME280;41148;45.420;10.952;2022-09-19T03:18:04;100201.41;;;13.36;65.71
23427;BME280;41148;45.420;10.952;2022-09-19T03:20:35;100201.47;;;13.34;65.33
23427;BME280;41148;45.420;10.952;2022-09-19T03:23:08;100196.91;;;13.36;65.06
23427;BME280;41148;45.420;10.952;2022-09-19T03:25:38;100185.63;;;13.30;65.50
23427;BME280;41148;45.420;10.952;2022-09-19T03:28:05;100191.06;;;13.28;65.12
23427;BME280;41148;45.420;10.952;2022-09-19T03:30:34;100192.78;;;13.29;65.23
23427;BME280;41148;45.420;10.952;2022-09-19T03:33:01;100184.91;;;13.26;65.27
23427;BME280;41148;45.420;10.952;2022-09-19T03:35:29;100190.41;;;13.42;64.09
23427;BME280;41148;45.420;10.952;2022-09-19T03:37:56;100196.13;;;13.34;64.52
23427;BME280;41148;45.420;10.952;2022-09-19T03:40:24;100199.34;;;13.41;63.46
23427;BME280;41148;45.420;10.952;2022-09-19T03:42:53;100202.84;;;13.43;63.42
23427;BME280;41148;45.420;10.952;2022-09-19T03:45:23;100202.41;;;13.33;64.55
23427;BME280;41148;45.420;10.952;2022-09-19T03:47:50;100196.69;;;13.02;65.07
23427;BME280;41148;45.420;10.952;2022-09-19T03:50:17;100197.28;;;13.08;65.63
23427;BME280;41148;45.420;10.952;2022-09-19T03:52:59;100202.28;;;13.16;65.83
23427;BME280;41148;45.420;10.952;2022-09-19T03:55:26;100189.19;;;13.10;65.22
23427;BME280;41148;45.420;10.952;2022-09-19T03:57:54;100196.94;;;13.16;65.13
23427;BME280;41148;45.420;10.952;2022-09-19T04:00:22;100194.47;;;13.11;64.86
23427;BME280;41148;45.420;10.952;2022-09-19T04:02:49;100185.47;;;13.14;64.56
23427;BME280;41148;45.420;10.952;2022-09-19T04:05:16;100196.00;;;13.17;64.36
23427;BME280;41148;45.420;10.952;2022-09-19T04:07:43;100198.69;;;13.17;64.56
23427;BME280;41148;45.420;10.952;2022-09-19T04:10:11;100194.19;;;13.17;64.46
23427;BME280;41148;45.420;10.952;2022-09-19T04:12:40;100199.81;;;13.11;65.23
23427;BME280;41148;45.420;10.952;2022-09-19T04:15:09;100197.72;;;12.99;65.96
23427;BME280;41148;45.420;10.952;2022-09-19T04:17:40;100195.19;;;12.96;65.82
23427;BME280;41148;45.420;10.952;2022-09-19T04:20:13;100205.81;;;12.98;65.24
23427;BME280;41148;45.420;10.952;2022-09-19T04:22:54;100212.31;;;13.11;64.97
23427;BME280;41148;45.420;10.952;2022-09-19T04:25:56;100215.81;;;13.13;64.69
23427;BME280;41148;45.420;10.952;2022-09-19T04:28:45;100221.28;;;13.10;65.00
23427;BME280;41148;45.420;10.952;2022-09-19T04:31:13;100212.47;;;13.08;64.92
23427;BME280;41148;45.420;10.952;2022-09-19T04:33:45;100221.16;;;13.13;65.00
23427;BME280;41148;45.420;10.952;2022-09-19T04:36:13;100217.63;;;13.12;64.71
23427;BME280;41148;45.420;10.952;2022-09-19T04:38:42;100210.31;;;13.16;64.42
23427;BME280;41148;45.420;10.952;2022-09-19T04:41:19;100211.38;;;13.12;64.74
23427;BME280;41148;45.420;10.952;2022-09-19T04:43:48;100214.84;;;12.95;66.10
23427;BME280;41148;45.420;10.952;2022-09-19T04:46:29;100209.94;;;13.05;65.29
23427;BME280;41148;45.420;10.952;2022-09-19T04:49:06;100213.03;;;12.96;66.60
23427;BME280;41148;45.420;10.952;2022-09-19T04:51:36;100215.56;;;12.99;65.54
23427;BME280;41148;45.420;10.952;2022-09-19T04:54:04;100211.69;;;13.06;65.09
23427;BME280;41148;45.420;10.952;2022-09-19T04:56:33;100218.84;;;13.05;64.16
23427;BME280;41148;45.420;10.952;2022-09-19T04:59:03;100219.97;;;13.00;64.15
23427;BME280;41148;45.420;10.952;2022-09-19T05:01:31;100220.28;;;12.94;64.44
23427;BME280;41148;45.420;10.952;2022-09-19T05:04:13;100218.16;;;13.00;64.20
23427;BME280;41148;45.420;10.952;2022-09-19T05:06:42;100229.31;;;13.10;63.92
23427;BME280;41148;45.420;10.952;2022-09-19T05:09:10;100237.47;;;13.07;64.19
23427;BME280;41148;45.420;10.952;2022-09-19T05:11:49;100239.28;;;13.06;64.39
23427;BME280;41148;45.420;10.952;2022-09-19T05:14:18;100224.63;;;13.15;64.18
23427;BME280;41148;45.420;10.952;2022-09-19T05:16:53;100235.94;;;13.22;63.81
23427;BME280;41148;45.420;10.952;2022-09-19T05:19:22;100238.94;;;13.14;64.27
23427;BME280;41148;45.420;10.952;2022-09-19T05:21:52;100243.44;;;13.13;64.56
23427;BME280;41148;45.420;10.952;2022-09-19T05:24:20;100246.22;;;13.10;64.91
23427;BME280;41148;45.420;10.952;2022-09-19T05:26:47;100252.44;;;13.11;64.91
23427;BME280;41148;45.420;10.952;2022-09-19T05:29:16;100261.06;;;13.17;64.36
23427;BME280;41148;45.420;10.952;2022-09-19T05:32:13;100255.94;;;13.13;64.77
23427;BME280;41148;45.420;10.952;2022-09-19T05:34:40;100251.50;;;13.12;65.59
23427;BME280;41148;45.420;10.952;2022-09-19T05:37:31;100250.25;;;13.21;65.45
23427;BME280;41148;45.420;10.952;2022-09-19T05:40:18;100267.28;;;13.38;64.19
23427;BME280;41148;45.420;10.952;2022-09-19T05:43:00;100264.66;;;13.37;64.38
23427;BME280;41148;45.420;10.952;2022-09-19T05:45:32;100259.41;;;13.35;63.98
23427;BME280;41148;45.420;10.952;2022-09-19T05:48:01;100270.97;;;13.36;63.63
23427;BME280;41148;45.420;10.952;2022-09-19T05:50:29;100273.97;;;13.28;65.08
23427;BME280;41148;45.420;10.952;2022-09-19T05:52:56;100277.44;;;13.30;64.65
23427;BME280;41148;45.420;10.952;2022-09-19T05:55:43;100271.91;;;13.14;65.63
23427;BME280;41148;45.420;10.952;2022-09-19T05:58:36;100268.09;;;13.20;65.75
23427;BME280;41148;45.420;10.952;2022-09-19T06:01:05;100272.16;;;13.29;65.32
23427;BME280;41148;45.420;10.952;2022-09-19T06:03:33;100270.28;;;13.31;65.46
23427;BME280;41148;45.420;10.952;2022-09-19T06:06:10;100281.50;;;13.39;65.22
23427;BME280;41148;45.420;10.952;2022-09-19T06:08:40;100283.69;;;13.50;64.55
23427;BME280;41148;45.420;10.952;2022-09-19T06:11:09;100285.88;;;13.60;63.30
23427;BME280;41148;45.420;10.952;2022-09-19T06:13:36;100282.56;;;13.74;62.47
23427;BME280;41148;45.420;10.952;2022-09-19T06:16:22;100289.56;;;13.77;62.34
23427;BME280;41148;45.420;10.952;2022-09-19T06:19:13;100282.28;;;13.80;62.43
23427;BME280;41148;45.420;10.952;2022-09-19T06:21:44;100284.22;;;13.77;63.86
23427;BME280;41148;45.420;10.952;2022-09-19T06:24:11;100275.31;;;13.76;64.95
23427;BME280;41148;45.420;10.952;2022-09-19T06:26:38;100280.06;;;13.88;64.30
23427;BME280;41148;45.420;10.952;2022-09-19T06:29:06;100278.78;;;13.97;64.76
23427;BME280;41148;45.420;10.952;2022-09-19T06:31:38;100278.56;;;14.01;65.41
23427;BME280;41148;45.420;10.952;2022-09-19T06:34:16;100290.69;;;14.09;64.97
23427;BME280;41148;45.420;10.952;2022-09-19T06:36:45;100287.84;;;14.30;64.08
23427;BME280;41148;45.420;10.952;2022-09-19T06:39:12;100295.06;;;14.47;63.15
23427;BME280;41148;45.420;10.952;2022-09-19T06:41:44;100299.44;;;14.67;63.32
23427;BME280;41148;45.420;10.952;2022-09-19T06:44:41;100303.81;;;14.85;63.03
23427;BME280;41148;45.420;10.952;2022-09-19T06:47:27;100305.47;;;15.05;61.11
23427;BME280;41148;45.420;10.952;2022-09-19T06:50:13;100308.53;;;15.15;61.32
23427;BME280;41148;45.420;10.952;2022-09-19T06:52:55;100315.59;;;15.51;59.92
23427;BME280;41148;45.420;10.952;2022-09-19T06:55:22;100308.69;;;15.62;59.33
23427;BME280;41148;45.420;10.952;2022-09-19T06:57:55;100316.78;;;15.78;59.31
23427;BME280;41148;45.420;10.952;2022-09-19T07:00:25;100311.53;;;16.08;58.47
23427;BME280;41148;45.420;10.952;2022-09-19T07:02:57;100311.06;;;16.93;56.57
23427;BME280;41148;45.420;10.952;2022-09-19T07:05:27;100312.63;;;18.25;52.21
23427;BME280;41148;45.420;10.952;2022-09-19T07:08:10;100315.81;;;18.03;52.80
23427;BME280;41148;45.420;10.952;2022-09-19T07:10:40;100321.72;;;17.82;53.40
23427;BME280;41148;45.420;10.952;2022-09-19T07:13:10;100321.41;;;17.43;54.42
23427;BME280;41148;45.420;10.952;2022-09-19T07:15:41;100329.47;;;17.15;55.77
23427;BME280;41148;45.420;10.952;2022-09-19T07:18:08;100338.28;;;16.73;55.54
23427;BME280;41148;45.420;10.952;2022-09-19T07:20:38;100335.44;;;16.44;56.97
23427;BME280;41148;45.420;10.952;2022-09-19T07:23:16;100336.22;;;16.46;57.70
23427;BME280;41148;45.420;10.952;2022-09-19T07:25:58;100333.34;;;16.49;58.07
23427;BME280;41148;45.420;10.952;2022-09-19T07:28:25;100336.41;;;16.43;58.14
23427;BME280;41148;45.420;10.952;2022-09-19T07:30:56;100342.00;;;16.54;57.96
23427;BME280;41148;45.420;10.952;2022-09-19T07:33:24;100346.84;;;16.64;57.89
23427;BME280;41148;45.420;10.952;2022-09-19T07:35:55;100355.19;;;16.75;57.52
23427;BME280;41148;45.420;10.952;2022-09-19T07:38:23;100354.22;;;16.92;56.50
23427;BME280;41148;45.420;10.952;2022-09-19T07:41:09;100361.56;;;16.88;55.34
23427;BME280;41148;45.420;10.952;2022-09-19T07:44:04;100367.38;;;16.96;54.77
23427;BME280;41148;45.420;10.952;2022-09-19T07:46:40;100364.88;;;16.93;55.22
23427;BME280;41148;45.420;10.952;2022-09-19T07:49:53;100372.44;;;16.86;57.08
23427;BME280;41148;45.420;10.952;2022-09-19T07:52:38;100375.81;;;16.90;57.20
23427;BME280;41148;45.420;10.952;2022-09-19T07:55:09;100383.81;;;16.92;57.86
23427;BME280;41148;45.420;10.952;2022-09-19T07:57:52;100384.22;;;17.00;57.65
23427;BME280;41148;45.420;10.952;2022-09-19T08:00:27;100380.78;;;17.12;56.57
23427;BME280;41148;45.420;10.952;2022-09-19T08:02:59;100383.91;;;17.20;56.40
23427;BME280;41148;45.420;10.952;2022-09-19T08:05:29;100391.31;;;17.31;56.23
23427;BME280;41148;45.420;10.952;2022-09-19T08:07:59;100394.97;;;17.30;53.98
23427;BME280;41148;45.420;10.952;2022-09-19T08:10:28;100396.41;;;17.35;54.25
23427;BME280;41148;45.420;10.952;2022-09-19T08:13:00;100402.50;;;17.53;54.14
23427;BME280;41148;45.420;10.952;2022-09-19T08:15:29;100403.34;;;17.69;54.32
23427;BME280;41148;45.420;10.952;2022-09-19T08:17:58;100404.09;;;17.71;53.35
23427;BME280;41148;45.420;10.952;2022-09-19T08:20:27;100403.69;;;17.63;53.90
23427;BME280;41148;45.420;10.952;2022-09-19T08:22:55;100402.56;;;18.10;53.14
23427;BME280;41148;45.420;10.952;2022-09-19T08:25:24;100408.63;;;18.14;51.98
23427;BME280;41148;45.420;10.952;2022-09-19T08:27:53;100411.47;;;18.39;52.35
23427;BME280;41148;45.420;10.952;2022-09-19T08:30:21;100414.94;;;18.55;51.23
23427;BME280;41148;45.420;10.952;2022-09-19T08:32:50;100412.66;;;18.62;50.73
23427;BME280;41148;45.420;10.952;2022-09-19T08:35:19;100414.50;;;18.76;50.78
23427;BME280;41148;45.420;10.952;2022-09-19T08:37:52;100416.34;;;19.02;50.72
23427;BME280;41148;45.420;10.952;2022-09-19T08:40:24;100420.56;;;19.19;50.21
23427;BME280;41148;45.420;10.952;2022-09-19T08:45:22;100423.41;;;18.91;49.00
23427;BME280;41148;45.420;10.952;2022-09-19T08:47:52;100417.59;;;19.24;49.68
23427;BME280;41148;45.420;10.952;2022-09-19T08:50:25;100420.53;;;19.46;48.69
23427;BME280;41148;45.420;10.952;2022-09-19T08:52:58;100422.13;;;19.88;47.88
23427;BME280;41148;45.420;10.952;2022-09-19T08:55:31;100417.09;;;20.20;46.62
23427;BME280;41148;45.420;10.952;2022-09-19T08:58:11;100418.84;;;20.71;45.23
23427;BME280;41148;45.420;10.952;2022-09-19T09:01:12;100413.47;;;22.66;42.22
23427;BME280;41148;45.420;10.952;2022-09-19T09:14:30;100430.56;;;21.54;44.09
23427;BME280;41148;45.420;10.952;2022-09-19T09:19:43;100446.50;;;21.11;44.30
23427;BME280;41148;45.420;10.952;2022-09-19T09:22:25;100437.78;;;21.19;44.99
23427;BME280;41148;45.420;10.952;2022-09-19T09:25:13;100444.34;;;21.03;46.11
23427;BME280;41148;45.420;10.952;2022-09-19T09:27:57;100445.28;;;20.91;46.02
23427;BME280;41148;45.420;10.952;2022-09-19T09:30:41;100437.31;;;21.01;44.42
23427;BME280;41148;45.420;10.952;2022-09-19T09:33:19;100447.38;;;20.88;44.83
23427;BME280;41148;45.420;10.952;2022-09-19T09:35:50;100441.28;;;20.84;46.43
23427;BME280;41148;45.420;10.952;2022-09-19T09:38:32;100441.41;;;20.82;47.32
23427;BME280;41148;45.420;10.952;2022-09-19T09:41:14;100443.06;;;20.85;47.08
23427;BME280;41148;45.420;10.952;2022-09-19T09:44:04;100439.13;;;20.89;47.24
23427;BME280;41148;45.420;10.952;2022-09-19T09:49:28;100431.44;;;20.83;46.67
23427;BME280;41148;45.420;10.952;2022-09-19T10:00:22;100435.44;;;20.66;47.05
23427;BME280;41148;45.420;10.952;2022-09-19T10:03:23;100441.09;;;20.74;46.89
23427;BME280;41148;45.420;10.952;2022-09-19T10:06:35;100438.69;;;20.82;46.97
23427;BME280;41148;45.420;10.952;2022-09-19T10:09:13;100445.34;;;20.78;46.89
23427;BME280;41148;45.420;10.952;2022-09-19T10:12:20;100438.69;;;20.82;46.38
23427;BME280;41148;45.420;10.952;2022-09-19T10:15:02;100444.41;;;20.91;46.71
23427;BME280;41148;45.420;10.952;2022-09-19T10:17:41;100443.31;;;20.93;46.57
23427;BME280;41148;45.420;10.952;2022-09-19T10:20:17;100453.88;;;20.85;46.07
23427;BME280;41148;45.420;10.952;2022-09-19T10:22:46;100453.41;;;20.91;46.63
23427;BME280;41148;45.420;10.952;2022-09-19T10:25:15;100450.00;;;21.00;46.49
23427;BME280;41148;45.420;10.952;2022-09-19T10:27:43;100453.06;;;20.96;45.69
23427;BME280;41148;45.420;10.952;2022-09-19T10:30:34;100453.19;;;20.94;46.33
23427;BME280;41148;45.420;10.952;2022-09-19T10:36:17;100445.81;;;20.96;45.65
23427;BME280;41148;45.420;10.952;2022-09-19T10:38:54;100451.72;;;21.01;45.04
23427;BME280;41148;45.420;10.952;2022-09-19T10:41:23;100446.84;;;21.06;44.78
23427;BME280;41148;45.420;10.952;2022-09-19T10:43:55;100454.63;;;21.11;45.65
23427;BME280;41148;45.420;10.952;2022-09-19T10:46:31;100459.91;;;21.12;46.37
23427;BME280;41148;45.420;10.952;2022-09-19T10:49:30;100462.03;;;21.20;45.05
23427;BME280;41148;45.420;10.952;2022-09-19T10:52:02;100464.75;;;21.20;43.72
23427;BME280;41148;45.420;10.952;2022-09-19T10:54:33;100456.22;;;21.26;44.02
23427;BME280;41148;45.420;10.952;2022-09-19T10:59:53;100451.19;;;21.33;43.58
23427;BME280;41148;45.420;10.952;2022-09-19T11:02:30;100455.13;;;21.40;43.29
23427;BME280;41148;45.420;10.952;2022-09-19T11:04:58;100448.13;;;21.37;43.45
23427;BME280;41148;45.420;10.952;2022-09-19T11:07:44;100454.00;;;21.31;42.45
23427;BME280;41148;45.420;10.952;2022-09-19T11:10:34;100455.09;;;21.29;43.11
23427;BME280;41148;45.420;10.952;2022-09-19T11:13:17;100456.25;;;21.37;43.56
23427;BME280;41148;45.420;10.952;2022-09-19T11:21:17;100441.41;;;21.54;40.57
23427;BME280;41148;45.420;10.952;2022-09-19T11:24:02;100456.94;;;21.52;40.43
23427;BME280;41148;45.420;10.952;2022-09-19T11:31:56;100450.28;;;21.56;41.38
23427;BME280;41148;45.420;10.952;2022-09-19T11:45:22;100457.25;;;21.83;39.46
23427;BME280;41148;45.420;10.952;2022-09-19T11:50:50;100446.66;;;21.91;40.29
23427;BME280;41148;45.420;10.952;2022-09-19T11:53:43;100459.25;;;21.92;39.26
23427;BME280;41148;45.420;10.952;2022-09-19T12:12:24;100434.50;;;22.30;35.76
23427;BME280;41148;45.420;10.952;2022-09-19T12:15:22;100430.53;;;22.34;36.38
23427;BME280;41148;45.420;10.952;2022-09-19T12:17:57;100436.09;;;22.33;35.44
23427;BME280;41148;45.420;10.952;2022-09-19T12:20:40;100440.78;;;22.31;35.51
23427;BME280;41148;45.420;10.952;2022-09-19T12:23:33;100438.28;;;22.39;34.10
23427;BME280;41148;45.420;10.952;2022-09-19T12:26:33;100436.69;;;22.36;34.25
23427;BME280;41148;45.420;10.952;2022-09-19T12:29:15;100430.94;;;22.30;34.11
23427;BME280;41148;45.420;10.952;2022-09-19T12:31:47;100427.59;;;22.26;34.44
23427;BME280;41148;45.420;10.952;2022-09-19T12:34:32;100426.56;;;22.38;34.76
23427;BME280;41148;45.420;10.952;2022-09-19T12:39:42;100418.66;;;22.57;33.67
23427;BME280;41148;45.420;10.952;2022-09-19T12:42:15;100418.66;;;22.57;34.38
23427;BME280;41148;45.420;10.952;2022-09-19T12:47:39;100421.41;;;22.46;35.06
23427;BME280;41148;45.420;10.952;2022-09-19T12:58:32;100418.56;;;22.59;34.71
23427;BME280;41148;45.420;10.952;2022-09-19T13:01:10;100416.19;;;22.66;34.23
23427;BME280;41148;45.420;10.952;2022-09-19T13:03:44;100408.03;;;22.66;34.92
23427;BME280;41148;45.420;10.952;2022-09-19T13:06:14;100415.44;;;22.64;34.80
23427;BME280;41148;45.420;10.952;2022-09-19T13:08:47;100413.84;;;22.61;34.10
23427;BME280;41148;45.420;10.952;2022-09-19T13:11:19;100406.56;;;22.62;33.78
23427;BME280;41148;45.420;10.952;2022-09-19T13:13:53;100399.28;;;22.62;32.42
23427;BME280;41148;45.420;10.952;2022-09-19T13:16:28;100405.72;;;22.61;33.06
23427;BME280;41148;45.420;10.952;2022-09-19T13:18:56;100400.78;;;22.55;33.80
23427;BME280;41148;45.420;10.952;2022-09-19T13:21:44;100400.78;;;22.55;35.01
23427;BME280;41148;45.420;10.952;2022-09-19T13:27:04;100401.00;;;22.63;30.74
23427;BME280;41148;45.420;10.952;2022-09-19T13:32:03;100404.41;;;22.76;30.83
23427;BME280;41148;45.420;10.952;2022-09-19T13:42:26;100396.41;;;22.75;30.38
23427;BME280;41148;45.420;10.952;2022-09-19T13:44:57;100392.97;;;22.73;31.84
23427;BME280;41148;45.420;10.952;2022-09-19T13:47:30;100391.19;;;22.83;28.97
23427;BME280;41148;45.420;10.952;2022-09-19T13:50:35;100394.63;;;23.07;27.59
23427;BME280;41148;45.420;10.952;2022-09-19T13:53:20;100397.97;;;23.00;27.71
23427;BME280;41148;45.420;10.952;2022-09-19T13:55:56;100394.41;;;22.99;27.51
23427;BME280;41148;45.420;10.952;2022-09-19T14:01:06;100397.84;;;23.01;26.71
23427;BME280;41148;45.420;10.952;2022-09-19T14:03:35;100398.47;;;22.94;28.16
23427;BME280;41148;45.420;10.952;2022-09-19T14:11:57;100393.31;;;22.91;29.27
23427;BME280;41148;45.420;10.952;2022-09-19T14:19:45;100387.91;;;22.79;31.03
23427;BME280;41148;45.420;10.952;2022-09-19T14:22:35;100380.25;;;22.84;30.23
23427;BME280;41148;45.420;10.952;2022-09-19T14:30:03;100383.69;;;22.75;31.24
23427;BME280;41148;45.420;10.952;2022-09-19T14:32:35;100382.38;;;22.70;31.91
23427;BME280;41148;45.420;10.952;2022-09-19T14:35:14;100381.50;;;22.69;32.27
23427;BME280;41148;45.420;10.952;2022-09-19T14:48:28;100383.38;;;22.57;29.43
23427;BME280;41148;45.420;10.952;2022-09-19T14:53:32;100379.19;;;22.53;29.22
23427;BME280;41148;45.420;10.952;2022-09-19T14:56:01;100382.13;;;22.62;28.14
23427;BME280;41148;45.420;10.952;2022-09-19T14:58:29;100385.84;;;22.61;28.74
23427;BME280;41148;45.420;10.952;2022-09-19T15:03:28;100379.28;;;22.63;29.24
23427;BME280;41148;45.420;10.952;2022-09-19T15:05:55;100381.50;;;22.69;28.83
23427;BME280;41148;45.420;10.952;2022-09-19T15:08:26;100378.16;;;22.66;29.49
23427;BME280;41148;45.420;10.952;2022-09-19T15:11:01;100375.44;;;22.66;28.47
23427;BME280;41148;45.420;10.952;2022-09-19T15:13:28;100377.84;;;22.59;30.09
23427;BME280;41148;45.420;10.952;2022-09-19T15:15:59;100366.84;;;22.61;31.70
23427;BME280;41148;45.420;10.952;2022-09-19T15:21:02;100375.13;;;22.59;31.99
23427;BME280;41148;45.420;10.952;2022-09-19T15:23:32;100370.78;;;22.56;31.65
23427;BME280;41148;45.420;10.952;2022-09-19T15:26:00;100372.63;;;22.56;31.82
23427;BME280;41148;45.420;10.952;2022-09-19T15:28:29;100372.78;;;22.54;32.03
23427;BME280;41148;45.420;10.952;2022-09-19T15:31:20;100378.31;;;22.53;32.36
23427;BME280;41148;45.420;10.952;2022-09-19T15:34:05;100380.31;;;22.51;32.69
23427;BME280;41148;45.420;10.952;2022-09-19T15:36:34;100379.69;;;22.47;32.15
23427;BME280;41148;45.420;10.952;2022-09-19T15:39:03;100383.38;;;22.46;32.38
23427;BME280;41148;45.420;10.952;2022-09-19T15:41:32;100375.50;;;22.43;32.32
23427;BME280;41148;45.420;10.952;2022-09-19T15:44:00;100378.59;;;22.39;31.82
23427;BME280;41148;45.420;10.952;2022-09-19T15:48:56;100384.16;;;22.37;32.24
23427;BME280;41148;45.420;10.952;2022-09-19T15:51:32;100383.53;;;22.34;31.95
23427;BME280;41148;45.420;10.952;2022-09-19T15:54:00;100383.69;;;22.32;31.94
23427;BME280;41148;45.420;10.952;2022-09-19T15:56:28;100383.81;;;22.31;31.83
23427;BME280;41148;45.420;10.952;2022-09-19T15:59:08;100388.38;;;22.30;31.99
23427;BME280;41148;45.420;10.952;2022-09-19T16:01:40;100386.75;;;22.27;31.34
23427;BME280;41148;45.420;10.952;2022-09-19T16:04:16;100386.00;;;22.25;31.61
23427;BME280;41148;45.420;10.952;2022-09-19T16:09:40;100382.94;;;22.19;31.71
23427;BME280;41148;45.420;10.952;2022-09-19T16:12:51;100401.69;;;22.22;31.28
23427;BME280;41148;45.420;10.952;2022-09-19T16:15:01;100402.06;;;22.17;32.75
23427;BME280;41148;45.420;10.952;2022-09-19T16:25:28;100406.72;;;22.04;32.11
23427;BME280;41148;45.420;10.952;2022-09-19T16:28:13;100404.25;;;22.01;32.78
23427;BME280;41148;45.420;10.952;2022-09-19T16:31:00;100401.78;;;21.98;33.44